createdAt,value
2022-08-29T11:25:21.852Z,1012.16
2022-08-29T11:26:21.835Z,1012.13
2022-08-29T11:27:21.812Z,1012.14
2022-08-29T11:28:21.816Z,1012.14
2022-08-29T11:29:21.781Z,1012.13
2022-08-29T11:30:21.772Z,1012.14
2022-08-29T11:31:21.801Z,1012.14
2022-08-29T11:32:21.750Z,1012.11
2022-08-29T11:33:21.754Z,1012.09
2022-08-29T11:34:21.724Z,1012.08
2022-08-29T11:35:21.708Z,1012.09
2022-08-29T11:36:21.694Z,1012.07
2022-08-29T11:37:21.682Z,1012.07
2022-08-29T11:38:21.681Z,1012.08
2022-08-29T11:39:21.678Z,1012.09
2022-08-29T11:40:47.327Z,1012.06
2022-08-29T11:41:29.421Z,1012.01
2022-08-29T11:43:21.619Z,1012.00
2022-08-29T11:44:21.607Z,1012.00
2022-08-29T11:45:21.584Z,1012.02
2022-08-29T11:46:21.592Z,1012.00
2022-08-29T11:47:21.558Z,1011.95
2022-08-29T11:48:21.570Z,1011.96
2022-08-29T11:49:21.543Z,1011.99
2022-08-29T11:50:21.523Z,1011.96
2022-08-29T11:51:21.509Z,1011.99
2022-08-29T11:52:22.522Z,1011.96
2022-08-29T11:53:21.501Z,1011.90
2022-08-29T11:54:25.006Z,1011.88
2022-08-29T11:55:21.471Z,1011.90
2022-08-29T11:56:29.031Z,1011.86
2022-08-29T11:57:21.444Z,1011.90
2022-08-29T11:58:21.445Z,1011.91
2022-08-29T11:59:21.413Z,1011.92
2022-08-29T12:00:21.440Z,1011.89
2022-08-29T12:01:21.396Z,1011.87
2022-08-29T12:02:21.415Z,1011.87
2022-08-29T12:03:28.548Z,1011.88
2022-08-29T12:04:21.375Z,1011.90
2022-08-29T12:05:21.339Z,1011.82
2022-08-29T12:06:21.329Z,1011.81
2022-08-29T12:07:21.326Z,1011.87
2022-08-29T12:08:35.966Z,1011.85
2022-08-29T12:09:21.350Z,1011.81
2022-08-29T12:10:21.288Z,1011.86
2022-08-29T12:11:21.280Z,1011.82
2022-08-29T12:12:21.259Z,1011.81
2022-08-29T12:13:21.260Z,1011.83
2022-08-29T12:14:21.252Z,1011.84
2022-08-29T12:15:21.232Z,1011.84
2022-08-29T12:16:21.250Z,1011.82
2022-08-29T12:17:21.202Z,1011.79
2022-08-29T12:18:21.211Z,1011.75
2022-08-29T12:19:21.185Z,1011.70
2022-08-29T12:20:21.167Z,1011.68
2022-08-29T12:21:21.155Z,1011.70
2022-08-29T12:22:22.031Z,1011.71
2022-08-29T12:23:21.146Z,1011.69
2022-08-29T12:24:21.134Z,1011.66
2022-08-29T12:25:21.108Z,1011.65
2022-08-29T12:26:22.801Z,1011.68
2022-08-29T12:27:21.089Z,1011.67
2022-08-29T12:28:21.089Z,1011.64
2022-08-29T12:29:21.068Z,1011.64
2022-08-29T12:30:21.068Z,1011.61
2022-08-29T12:31:21.109Z,1011.57
2022-08-29T12:32:23.826Z,1011.64
2022-08-29T12:33:21.036Z,1011.62
2022-08-29T12:34:23.449Z,1011.63
2022-08-29T12:35:21.003Z,1011.62
2022-08-29T12:36:20.994Z,1011.62
2022-08-29T12:37:20.993Z,1011.61
2022-08-29T12:38:20.984Z,1011.58
2022-08-29T12:39:20.962Z,1011.62
2022-08-29T12:40:20.999Z,1011.62
2022-08-29T12:41:20.941Z,1011.60
2022-08-29T12:42:20.940Z,1011.61
2022-08-29T12:43:20.934Z,1011.54
2022-08-29T12:44:20.922Z,1011.54
2022-08-29T12:45:20.901Z,1011.53
2022-08-29T12:46:20.925Z,1011.50
2022-08-29T12:47:20.882Z,1011.45
2022-08-29T12:48:20.895Z,1011.47
2022-08-29T12:49:20.863Z,1011.43
2022-08-29T12:50:20.854Z,1011.46
2022-08-29T12:51:20.853Z,1011.44
2022-08-29T12:52:20.835Z,1011.50
2022-08-29T12:53:20.845Z,1011.46
2022-08-29T12:54:20.826Z,1011.45
2022-08-29T12:55:20.815Z,1011.36
2022-08-29T12:56:20.794Z,1011.34
2022-08-29T12:57:20.785Z,1011.41
2022-08-29T12:58:20.800Z,1011.41
2022-08-29T12:59:20.766Z,1011.40
2022-08-29T13:00:20.764Z,1011.39
2022-08-29T13:01:20.785Z,1011.34
2022-08-29T13:02:20.776Z,1011.33
2022-08-29T13:03:20.805Z,1011.31
2022-08-29T13:04:20.721Z,1011.26
2022-08-29T13:05:22.579Z,1011.29
2022-08-29T13:06:20.704Z,1011.27
2022-08-29T13:08:20.831Z,1011.27
2022-08-29T13:09:20.682Z,1011.28
2022-08-29T13:10:20.672Z,1011.28
2022-08-29T13:11:20.650Z,1011.26
2022-08-29T13:12:20.641Z,1011.23
2022-08-29T13:13:20.646Z,1011.21
2022-08-29T13:14:20.633Z,1011.20
2022-08-29T13:15:20.626Z,1011.21
2022-08-29T13:16:20.662Z,1011.26
2022-08-29T13:17:20.598Z,1011.29
2022-08-29T13:18:20.598Z,1011.33
2022-08-29T13:19:20.578Z,1011.33
2022-08-29T13:20:20.579Z,1011.27
2022-08-29T13:21:20.560Z,1011.28
2022-08-29T13:22:20.550Z,1011.33
2022-08-29T13:23:20.547Z,1011.26
2022-08-29T13:24:20.565Z,1011.28
2022-08-29T13:25:20.528Z,1011.22
2022-08-29T13:26:20.513Z,1011.20
2022-08-29T13:27:20.512Z,1011.23
2022-08-29T13:28:20.502Z,1011.29
2022-08-29T13:29:20.537Z,1011.31
2022-08-29T13:30:20.485Z,1011.25
2022-08-29T13:31:20.553Z,1011.31
2022-08-29T13:32:20.467Z,1011.27
2022-08-29T13:33:20.448Z,1011.28
2022-08-29T13:34:20.450Z,1011.26
2022-08-29T13:35:20.447Z,1011.19
2022-08-29T13:36:20.430Z,1011.24
2022-08-29T13:37:20.417Z,1011.18
2022-08-29T13:38:20.404Z,1011.26
2022-08-29T13:39:20.404Z,1011.27
2022-08-29T13:40:20.492Z,1011.25
2022-08-29T13:41:20.384Z,1011.21
2022-08-29T13:42:20.367Z,1011.21
2022-08-29T13:43:20.365Z,1011.19
2022-08-29T13:44:20.371Z,1011.21
2022-08-29T13:45:20.339Z,1011.15
2022-08-29T13:46:20.388Z,1011.16
2022-08-29T13:47:20.327Z,1011.11
2022-08-29T13:48:20.455Z,1011.11
2022-08-29T13:49:20.320Z,1011.03
2022-08-29T13:50:20.299Z,1011.12
2022-08-29T13:51:20.303Z,1011.07
2022-08-29T13:52:20.291Z,1011.10
2022-08-29T13:53:20.284Z,1011.03
2022-08-29T13:54:20.287Z,1011.02
2022-08-29T13:55:20.260Z,1010.98
2022-08-29T13:56:20.438Z,1010.99
2022-08-29T13:57:20.254Z,1011.00
2022-08-29T13:58:20.245Z,1010.97
2022-08-29T13:59:20.252Z,1010.97
2022-08-29T14:00:22.798Z,1010.92
2022-08-29T14:02:20.420Z,1010.93
2022-08-29T14:03:20.311Z,1010.96
2022-08-29T14:04:37.395Z,1010.95
2022-08-29T14:05:20.179Z,1010.96
2022-08-29T14:06:20.172Z,1010.92
2022-08-29T14:07:20.166Z,1010.95
2022-08-29T14:08:20.156Z,1010.96
2022-08-29T14:09:20.166Z,1010.99
2022-08-29T14:10:20.152Z,1010.94
2022-08-29T14:11:20.145Z,1010.86
2022-08-29T14:12:20.126Z,1010.98
2022-08-29T14:13:20.130Z,1010.89
2022-08-29T14:14:20.113Z,1010.90
2022-08-29T14:15:20.119Z,1010.89
2022-08-29T14:16:20.157Z,1010.90
2022-08-29T14:17:20.092Z,1010.96
2022-08-29T14:18:20.084Z,1010.95
2022-08-29T14:19:20.087Z,1010.82
2022-08-29T14:20:20.093Z,1010.80
2022-08-29T14:21:20.068Z,1010.86
2022-08-29T14:22:20.052Z,1010.80
2022-08-29T14:23:23.169Z,1010.82
2022-08-29T14:24:20.047Z,1010.89
2022-08-29T14:25:20.055Z,1010.78
2022-08-29T14:26:20.024Z,1010.84
2022-08-29T14:27:20.017Z,1010.87
2022-08-29T14:28:20.017Z,1010.82
2022-08-29T14:29:20.005Z,1010.91
2022-08-29T14:30:20.014Z,1010.88
2022-08-29T14:31:20.063Z,1010.78
2022-08-29T14:32:19.977Z,1010.81
2022-08-29T14:33:20.107Z,1010.81
2022-08-29T14:34:19.961Z,1010.84
2022-08-29T14:35:26.494Z,1010.81
2022-08-29T14:36:19.946Z,1010.85
2022-08-29T14:37:19.954Z,1010.91
2022-08-29T14:38:19.941Z,1010.87
2022-08-29T14:39:19.923Z,1010.76
2022-08-29T14:40:21.831Z,1010.81
2022-08-29T14:41:19.907Z,1010.78
2022-08-29T14:42:19.909Z,1010.78
2022-08-29T14:43:19.903Z,1010.85
2022-08-29T14:44:20.469Z,1010.81
2022-08-29T14:45:19.888Z,1010.76
2022-08-29T14:46:19.920Z,1010.76
2022-08-29T14:47:19.872Z,1010.75
2022-08-29T14:48:19.851Z,1010.80
2022-08-29T14:49:19.844Z,1010.77
2022-08-29T14:50:19.855Z,1010.73
2022-08-29T14:51:19.829Z,1010.69
2022-08-29T14:52:19.823Z,1010.72
2022-08-29T14:53:19.813Z,1010.75
2022-08-29T14:54:19.805Z,1010.75
2022-08-29T14:55:19.812Z,1010.65
2022-08-29T14:56:37.240Z,1010.68
2022-08-29T14:57:19.783Z,1010.66
2022-08-29T14:58:19.790Z,1010.64
2022-08-29T14:59:19.773Z,1010.59
2022-08-29T15:00:19.773Z,1010.59
2022-08-29T15:01:19.823Z,1010.61
2022-08-29T15:02:19.792Z,1010.61
2022-08-29T15:03:19.751Z,1010.58
2022-08-29T15:04:21.755Z,1010.59
2022-08-29T15:05:19.737Z,1010.56
2022-08-29T15:06:19.727Z,1010.58
2022-08-29T15:07:19.725Z,1010.55
2022-08-29T15:08:20.089Z,1010.50
2022-08-29T15:09:19.699Z,1010.51
2022-08-29T15:10:19.707Z,1010.45
2022-08-29T15:11:19.694Z,1010.45
2022-08-29T15:12:19.685Z,1010.50
2022-08-29T15:13:19.670Z,1010.49
2022-08-29T15:14:19.679Z,1010.58
2022-08-29T15:15:19.670Z,1010.43
2022-08-29T15:16:19.695Z,1010.62
2022-08-29T15:17:19.649Z,1010.71
2022-08-29T15:18:48.028Z,1010.82
2022-08-29T15:20:37.161Z,1010.81
2022-08-29T15:21:19.610Z,1010.57
2022-08-29T15:22:19.601Z,1010.45
2022-08-29T15:23:19.626Z,1010.39
2022-08-29T15:24:19.584Z,1010.44
2022-08-29T15:25:19.600Z,1010.42
2022-08-29T15:26:19.580Z,1010.39
2022-08-29T15:27:21.627Z,1010.38
2022-08-29T15:28:19.558Z,1010.38
2022-08-29T15:29:19.547Z,1010.33
2022-08-29T15:30:19.564Z,1010.33
2022-08-29T15:31:19.653Z,1010.40
2022-08-29T15:32:19.529Z,1010.41
2022-08-29T15:33:19.525Z,1010.54
2022-08-29T15:34:19.514Z,1010.61
2022-08-29T15:35:19.522Z,1010.68
2022-08-29T15:36:19.499Z,1010.56
2022-08-29T15:37:19.491Z,1010.62
2022-08-29T15:38:19.482Z,1010.67
2022-08-29T15:39:19.478Z,1010.75
2022-08-29T15:40:19.560Z,1010.70
2022-08-29T15:41:19.450Z,1010.64
2022-08-29T15:54:00.238Z,1010.49
2022-08-29T15:55:00.212Z,1010.38
2022-08-29T15:56:00.213Z,1010.31
2022-08-29T15:57:00.182Z,1010.18
2022-08-29T15:58:00.182Z,1010.14
2022-08-29T15:59:00.166Z,1010.20
2022-08-29T16:00:00.187Z,1010.39
2022-08-29T16:01:00.182Z,1010.34
2022-08-29T16:02:00.237Z,1010.21
2022-08-29T16:03:00.238Z,1010.19
2022-08-29T16:04:00.116Z,1010.20
2022-08-29T16:05:00.155Z,1010.22
2022-08-29T16:06:00.119Z,1010.20
2022-08-29T16:07:00.093Z,1010.15
2022-08-29T16:08:00.092Z,1010.13
2022-08-29T16:09:00.080Z,1010.11
2022-08-29T16:10:00.075Z,1010.08
2022-08-29T16:30:05.414Z,1009.99
2022-08-29T16:31:05.410Z,1009.92
